Time;durP1;ratioP1;P1;durP2;ratioP2;P2;SDS_P1;SDS_P2;PMS_P1;PMS_P2;Temp;Humidity;BMP_temperature;BMP_pressure;BME280_temperature;BME280_humidity;BME280_pressure;Samples;Min_cycle;Max_cycle;Signal;HPM_P1;HPM_P2
2023/06/04 00:01:59;;;;;;;7.28;4.95;;;;;;;15.92;66.40;97307.63;6153410;23;20371;-75
2023/06/04 00:04:26;;;;;;;11.05;5.63;;;;;;;15.90;66.77;97314.31;6152887;23;20440;-75
2023/06/04 00:06:52;;;;;;;9.90;5.57;;;;;;;15.87;66.91;97313.81;6153135;23;20703;-75
2023/06/04 00:09:19;;;;;;;9.80;5.60;;;;;;;15.86;66.36;97319.47;6153044;23;20703;-75
2023/06/04 00:11:47;;;;;;;10.55;5.70;;;;;;;15.81;66.84;97317.63;6153322;23;20367;-75
2023/06/04 00:14:14;;;;;;;8.75;5.10;;;;;;;15.74;67.07;97316.38;6126273;23;20451;-75
2023/06/04 00:16:41;;;;;;;8.63;5.57;;;;;;;15.67;67.78;97318.59;6152996;23;20382;-75
2023/06/04 00:19:08;;;;;;;10.48;5.82;;;;;;;15.67;67.60;97316.72;6152843;23;20371;-75
2023/06/04 00:21:35;;;;;;;9.50;5.35;;;;;;;15.62;67.69;97311.47;6152884;23;20398;-75
2023/06/04 00:24:01;;;;;;;8.43;5.80;;;;;;;15.60;67.63;97315.50;6152906;23;20375;-75
2023/06/04 00:26:28;;;;;;;10.30;5.85;;;;;;;15.52;68.58;97310.75;6152863;23;20421;-75
2023/06/04 00:28:56;;;;;;;8.82;5.30;;;;;;;15.47;68.50;97308.94;6152599;23;20391;-75
2023/06/04 00:31:22;;;;;;;8.98;5.93;;;;;;;15.45;69.25;97319.09;6126762;23;20379;-75
2023/06/04 00:33:48;;;;;;;8.18;5.40;;;;;;;15.41;68.56;97312.75;6152716;23;20371;-74
2023/06/04 00:36:14;;;;;;;10.38;6.18;;;;;;;15.40;68.45;97311.16;6152581;23;20788;-74
2023/06/04 00:38:40;;;;;;;9.00;5.60;;;;;;;15.33;68.75;97306.16;6152701;23;20367;-75
2023/06/04 00:41:07;;;;;;;11.52;5.70;;;;;;;15.34;69.56;97314.94;6152808;23;20371;-75
2023/06/04 00:43:33;;;;;;;10.23;5.25;;;;;;;15.29;69.72;97320.31;6152786;23;20394;-75
2023/06/04 00:46:02;;;;;;;10.13;5.43;;;;;;;15.28;69.76;97313.41;6152534;23;20374;-75
2023/06/04 00:48:30;;;;;;;9.40;5.60;;;;;;;15.23;70.16;97322.25;6153268;23;20379;-75
2023/06/04 00:50:57;;;;;;;10.25;6.28;;;;;;;15.27;69.73;97312.59;6152580;23;20458;-75
2023/06/04 00:53:25;;;;;;;9.52;5.68;;;;;;;15.18;70.28;97321.53;6126396;23;20450;-75
2023/06/04 00:55:51;;;;;;;10.15;6.15;;;;;;;15.22;70.38;97322.53;6125884;23;20390;-75
2023/06/04 00:58:17;;;;;;;10.32;5.80;;;;;;;15.15;70.50;97322.06;6152642;23;20417;-75
2023/06/04 01:00:45;;;;;;;8.13;5.75;;;;;;;15.08;70.73;97325.88;6152507;23;20446;-75
2023/06/04 01:03:17;;;;;;;10.88;6.43;;;;;;;15.10;71.24;97323.72;6152575;23;20374;-75
2023/06/04 01:05:51;;;;;;;11.38;5.85;;;;;;;15.01;70.78;97328.06;6152712;23;20823;-75
2023/06/04 01:08:18;;;;;;;6.78;5.13;;;;;;;14.96;71.37;97336.09;6152089;23;20481;-75
2023/06/04 01:10:51;;;;;;;7.95;5.30;;;;;;;14.96;71.37;97338.00;6152957;23;20403;-75
2023/06/04 01:13:17;;;;;;;9.75;5.80;;;;;;;14.96;71.23;97338.00;6152893;23;20382;-75
2023/06/04 01:15:43;;;;;;;7.70;5.57;;;;;;;14.93;71.91;97335.88;6152732;23;20399;-75
2023/06/04 01:18:24;;;;;;;8.60;5.50;;;;;;;14.88;72.01;97331.38;6152909;23;20458;-73
2023/06/04 01:20:51;;;;;;;7.72;5.50;;;;;;;14.85;72.53;97339.13;6152689;23;20368;-75
2023/06/04 01:23:33;;;;;;;8.02;5.55;;;;;;;14.83;72.29;97334.06;6152815;23;20366;-73
2023/06/04 01:26:02;;;;;;;9.90;5.57;;;;;;;14.76;72.19;97333.59;6152543;23;20371;-75
2023/06/04 01:28:29;;;;;;;14.05;5.90;;;;;;;14.82;71.59;97335.16;6152719;23;20383;-75
2023/06/04 01:30:56;;;;;;;9.27;5.27;;;;;;;14.73;71.96;97336.03;6152752;23;20371;-75
2023/06/04 01:33:24;;;;;;;7.80;5.20;;;;;;;14.71;71.72;97326.44;6153152;23;20367;-75
2023/06/04 01:35:50;;;;;;;10.87;4.93;;;;;;;14.66;71.90;97328.34;6152816;23;20447;-75
2023/06/04 01:38:17;;;;;;;9.57;5.65;;;;;;;14.67;72.17;97329.94;6152847;23;20428;-75
2023/06/04 01:40:43;;;;;;;9.13;5.53;;;;;;;14.59;72.63;97330.53;6152949;23;20426;-75
2023/06/04 01:43:09;;;;;;;7.68;4.80;;;;;;;14.53;73.06;97321.00;6152507;23;20371;-75
2023/06/04 01:45:36;;;;;;;11.27;5.38;;;;;;;14.52;73.13;97322.06;6152687;23;20363;-75
2023/06/04 01:48:03;;;;;;;7.13;4.95;;;;;;;14.49;73.48;97326.09;6152751;23;20422;-75
2023/06/04 01:50:31;;;;;;;10.50;5.90;;;;;;;14.55;72.97;97321.50;6152977;23;20366;-75
2023/06/04 01:52:57;;;;;;;7.13;4.72;;;;;;;14.44;73.29;97325.31;6126689;23;20377;-75
2023/06/04 01:55:29;;;;;;;8.85;5.53;;;;;;;14.44;73.09;97333.28;6152932;23;20378;-75
2023/06/04 01:57:56;;;;;;;7.13;4.75;;;;;;;14.38;73.38;97321.06;6152764;23;20882;-75
2023/06/04 02:00:22;;;;;;;7.70;4.85;;;;;;;14.34;73.12;97324.28;6152893;23;20371;-75
2023/06/04 02:02:50;;;;;;;8.40;5.38;;;;;;;14.35;73.51;97322.44;6152377;23;21211;-75
2023/06/04 02:05:17;;;;;;;8.02;4.60;;;;;;;14.32;73.95;97323.75;6152531;23;20367;-75
2023/06/04 02:07:45;;;;;;;8.40;4.97;;;;;;;14.41;73.26;97323.22;6152933;23;20402;-75
2023/06/04 02:10:13;;;;;;;7.05;4.75;;;;;;;14.34;73.28;97329.63;6152900;23;20375;-75
2023/06/04 02:12:41;;;;;;;7.63;4.97;;;;;;;14.33;73.87;97332.56;6152422;23;20367;-75
2023/06/04 02:15:11;;;;;;;9.38;5.22;;;;;;;14.34;73.53;97328.81;6152513;23;20427;-75
2023/06/04 02:17:39;;;;;;;8.15;5.10;;;;;;;14.27;73.39;97334.47;6153121;23;20839;-75
2023/06/04 02:20:09;;;;;;;8.77;5.25;;;;;;;14.24;73.08;97331.53;6151478;23;20387;-76
2023/06/04 02:22:36;;;;;;;8.18;4.95;;;;;;;14.16;73.65;97329.44;6152108;23;20371;-75
2023/06/04 02:25:04;;;;;;;7.43;4.72;;;;;;;14.09;74.39;97324.44;6152498;23;20371;-75
2023/06/04 02:27:30;;;;;;;10.10;5.32;;;;;;;14.15;73.45;97333.19;6150809;23;20451;-75
2023/06/04 02:29:56;;;;;;;9.75;5.03;;;;;;;14.15;72.71;97338.50;6152542;23;20379;-75
2023/06/04 02:32:23;;;;;;;10.40;5.45;;;;;;;13.98;73.81;97335.41;6152116;23;20422;-76
2023/06/04 02:34:49;;;;;;;9.93;4.73;;;;;;;13.88;74.37;97329.06;6151804;23;20371;-75
2023/06/04 02:37:15;;;;;;;6.68;4.40;;;;;;;13.85;74.37;97336.78;6153636;23;20398;-75
2023/06/04 02:39:42;;;;;;;9.02;4.78;;;;;;;13.92;74.29;97335.44;6153976;23;20359;-75
2023/06/04 02:42:09;;;;;;;6.00;4.65;;;;;;;13.86;74.01;97341.84;6153872;23;20382;-76
2023/06/04 02:44:35;;;;;;;6.82;4.45;;;;;;;13.82;74.43;97340.81;6153685;23;20378;-75
2023/06/04 02:47:02;;;;;;;9.87;5.43;;;;;;;13.85;74.15;97342.91;6153896;23;20451;-75
2023/06/04 02:49:28;;;;;;;7.85;4.85;;;;;;;13.79;74.37;97336.03;6153878;23;20893;-75
2023/06/04 02:51:54;;;;;;;8.02;4.72;;;;;;;13.78;74.61;97341.59;6153726;23;20883;-75
2023/06/04 02:54:20;;;;;;;11.00;4.90;;;;;;;13.76;74.34;97328.56;6154174;23;20375;-75
2023/06/04 02:56:48;;;;;;;8.48;4.38;;;;;;;13.71;75.09;97341.09;6154344;23;20422;-75
2023/06/04 02:59:16;;;;;;;7.07;4.47;;;;;;;13.70;75.57;97336.84;6154345;23;20367;-75
2023/06/04 03:01:43;;;;;;;9.27;4.63;;;;;;;13.67;75.36;97342.72;6154205;23;20405;-75
2023/06/04 03:04:09;;;;;;;7.47;4.43;;;;;;;13.63;75.91;97339.81;6153969;23;20873;-75
2023/06/04 03:06:39;;;;;;;7.72;4.50;;;;;;;13.64;75.78;97337.94;6153777;23;20367;-76
2023/06/04 03:09:06;;;;;;;7.25;4.50;;;;;;;13.63;75.82;97344.31;6153729;23;20433;-75
2023/06/04 03:11:33;;;;;;;6.75;4.40;;;;;;;13.63;75.66;97339.81;6153801;23;20371;-76
2023/06/04 03:13:59;;;;;;;9.10;4.75;;;;;;;13.66;74.98;97338.47;6154500;23;20739;-75
2023/06/04 03:16:27;;;;;;;9.07;4.30;;;;;;;13.59;74.95;97352.06;6154024;23;20458;-75
2023/06/04 03:18:53;;;;;;;6.43;4.38;;;;;;;13.57;75.09;97347.00;6153915;23;20685;-75
2023/06/04 03:21:19;;;;;;;7.85;4.60;;;;;;;13.64;74.19;97351.25;6154202;23;20368;-75
2023/06/04 03:23:45;;;;;;;6.93;4.28;;;;;;;13.55;74.21;97353.66;6153869;23;20409;-75
2023/06/04 03:26:12;;;;;;;9.55;4.35;;;;;;;13.53;73.81;97345.16;6153761;23;20371;-75
2023/06/04 03:28:39;;;;;;;6.75;4.10;;;;;;;13.47;74.23;97357.66;6154017;23;20422;-75
2023/06/04 03:31:05;;;;;;;7.75;4.28;;;;;;;13.42;74.73;97356.88;6153908;23;20371;-75
2023/06/04 03:33:33;;;;;;;5.87;3.90;;;;;;;13.42;74.56;97365.66;6153813;23;20473;-75
2023/06/04 03:35:59;;;;;;;5.18;3.70;;;;;;;13.46;73.29;97357.94;6153628;23;20371;-75
2023/06/04 03:38:25;;;;;;;6.93;3.60;;;;;;;13.38;73.65;97361.94;6153854;23;20479;-75
2023/06/04 03:40:52;;;;;;;6.72;3.85;;;;;;;13.33;74.30;97363.81;6153880;23;20367;-75
2023/06/04 03:43:19;;;;;;;7.22;3.75;;;;;;;13.33;74.62;97361.94;6153955;23;20394;-75
2023/06/04 03:45:45;;;;;;;5.85;3.80;;;;;;;13.34;74.45;97358.22;6153558;23;20439;-76
2023/06/04 03:48:11;;;;;;;6.43;3.88;;;;;;;13.31;74.85;97364.06;6153622;23;20428;-75
2023/06/04 03:50:39;;;;;;;7.22;4.13;;;;;;;13.31;74.97;97357.97;6154002;23;20831;-75
2023/06/04 03:53:06;;;;;;;8.00;4.22;;;;;;;13.33;74.43;97356.63;6153794;23;20367;-75
2023/06/04 03:55:32;;;;;;;9.23;4.35;;;;;;;13.36;73.80;97365.94;6153639;23;20399;-75
2023/06/04 03:57:58;;;;;;;5.93;3.78;;;;;;;13.33;74.42;97363.81;6154088;23;20454;-75
2023/06/04 04:00:25;;;;;;;11.98;4.40;;;;;;;13.33;74.63;97369.94;6153820;23;20823;-75
2023/06/04 04:02:51;;;;;;;7.18;4.32;;;;;;;13.33;74.26;97366.47;6153414;23;20422;-75
2023/06/04 04:05:17;;;;;;;7.05;3.92;;;;;;;13.35;74.38;97367.00;6153482;23;20850;-75
2023/06/04 04:07:47;;;;;;;8.35;3.95;;;;;;;13.36;74.23;97368.59;6153607;23;20363;-75
2023/06/04 04:10:13;;;;;;;7.25;3.65;;;;;;;13.37;74.28;97367.53;6153544;23;20858;-75
2023/06/04 04:12:39;;;;;;;6.45;3.85;;;;;;;13.38;74.51;97369.13;6153347;23;20688;-75
2023/06/04 04:15:06;;;;;;;9.02;3.92;;;;;;;13.40;74.71;97372.31;6153492;23;20699;-75
2023/06/04 04:17:32;;;;;;;8.18;3.83;;;;;;;13.39;74.78;97370.72;6153581;23;20378;-75
2023/06/04 04:19:59;;;;;;;6.63;3.83;;;;;;;13.41;75.05;97373.91;6153455;23;20371;-75
2023/06/04 04:22:25;;;;;;;6.25;3.60;;;;;;;13.40;75.51;97369.66;6153478;23;20371;-76
2023/06/04 04:24:52;;;;;;;4.80;3.20;;;;;;;13.41;75.71;97380.03;6153259;23;20378;-75
2023/06/04 04:27:19;;;;;;;5.07;3.13;;;;;;;13.44;76.49;97384.81;6151883;23;20938;-75
2023/06/04 04:29:48;;;;;;;5.70;3.80;;;;;;;13.47;77.58;97380.78;6153475;23;20383;-75
2023/06/04 04:32:16;;;;;;;5.55;3.83;;;;;;;13.53;76.75;97385.06;6153536;23;20367;-75
2023/06/04 04:34:51;;;;;;;9.53;4.10;;;;;;;13.51;76.62;97389.84;6153298;23;20451;-75
2023/06/04 04:37:20;;;;;;;6.80;3.53;;;;;;;13.48;77.00;97383.19;6153889;23;20371;-75
2023/06/04 04:39:47;;;;;;;5.07;3.40;;;;;;;13.51;77.18;97389.84;6153628;23;20441;-75
2023/06/04 04:42:14;;;;;;;5.72;3.53;;;;;;;13.57;77.33;97388.75;6153409;23;20375;-75
2023/06/04 04:44:41;;;;;;;7.25;4.03;;;;;;;13.61;77.19;97389.03;6153352;23;20459;-75
2023/06/04 04:47:07;;;;;;;7.18;3.90;;;;;;;13.65;77.80;97387.41;6153484;23;20374;-75
2023/06/04 04:49:33;;;;;;;6.35;3.92;;;;;;;13.70;78.24;97384.72;6153336;23;20407;-75
2023/06/04 04:51:59;;;;;;;5.38;3.70;;;;;;;13.72;78.33;97396.69;6153319;23;20378;-75
2023/06/04 04:54:25;;;;;;;5.80;3.53;;;;;;;13.77;79.03;97396.69;6153076;23;20842;-75
2023/06/04 04:56:51;;;;;;;5.95;3.50;;;;;;;13.86;79.26;97396.91;6153270;23;20437;-75
2023/06/04 04:59:19;;;;;;;4.50;3.28;;;;;;;13.97;78.91;97403.81;6153284;23;20360;-75
2023/06/04 05:01:45;;;;;;;3.30;2.80;;;;;;;14.09;78.47;97400.84;6153080;23;20367;-75
2023/06/04 05:04:11;;;;;;;4.50;3.00;;;;;;;14.21;78.67;97401.28;6153303;23;20897;-75
2023/06/04 05:06:38;;;;;;;4.03;3.00;;;;;;;14.32;78.94;97403.66;6153048;23;20399;-75
2023/06/04 05:09:04;;;;;;;3.50;2.67;;;;;;;14.42;79.00;97402.84;6153257;23;20784;-75
2023/06/04 05:11:30;;;;;;;3.83;2.88;;;;;;;14.52;79.01;97410.75;6153211;23;20403;-76
2023/06/04 05:13:56;;;;;;;4.80;3.13;;;;;;;14.63;78.65;97406.19;6153201;23;20378;-75
2023/06/04 05:16:24;;;;;;;8.23;3.90;;;;;;;14.73;75.34;97400.78;6153025;23;20371;-75
2023/06/04 05:18:51;;;;;;;6.38;3.10;;;;;;;14.78;75.25;97418.59;6152976;23;20378;-75
2023/06/04 05:21:17;;;;;;;5.65;3.13;;;;;;;14.84;75.58;97414.81;6153350;23;20398;-75
2023/06/04 05:23:48;;;;;;;4.05;2.83;;;;;;;14.88;75.31;97414.00;6153003;23;20403;-75
2023/06/04 05:26:14;;;;;;;3.30;2.53;;;;;;;14.95;75.01;97425.16;6152838;23;20414;-75
2023/06/04 05:28:43;;;;;;;5.03;3.08;;;;;;;15.01;74.09;97417.91;6152869;23;20611;-75
2023/06/04 05:31:09;;;;;;;5.25;2.88;;;;;;;15.06;74.30;97425.84;6153098;23;20378;-75
2023/06/04 05:33:37;;;;;;;5.57;3.03;;;;;;;15.13;74.17;97430.88;6152982;23;20454;-76
2023/06/04 05:36:03;;;;;;;4.23;2.80;;;;;;;15.20;73.77;97429.47;6152863;23;20484;-76
2023/06/04 05:38:30;;;;;;;4.22;2.95;;;;;;;15.26;73.82;97430.25;6153010;23;20451;-75
2023/06/04 05:40:57;;;;;;;3.97;2.80;;;;;;;15.31;73.92;97428.31;6153146;23;20371;-76
2023/06/04 05:43:23;;;;;;;4.03;2.72;;;;;;;15.37;74.01;97434.41;6152862;23;20377;-76
2023/06/04 05:45:51;;;;;;;4.68;3.13;;;;;;;15.40;74.04;97434.66;6152803;23;20371;-76
2023/06/04 05:48:17;;;;;;;4.60;2.90;;;;;;;15.44;74.42;97432.19;6152899;23;20378;-75
2023/06/04 05:50:47;;;;;;;3.95;2.90;;;;;;;15.45;74.71;97428.47;6152927;23;20450;-76
2023/06/04 05:53:13;;;;;;;4.70;2.90;;;;;;;15.47;74.81;97431.66;6152904;23;20371;-74
2023/06/04 05:55:39;;;;;;;4.30;2.83;;;;;;;15.47;74.91;97435.13;6152552;23;20373;-74
2023/06/04 05:58:05;;;;;;;4.38;3.00;;;;;;;15.49;75.06;97434.81;6154740;23;20378;-73
2023/06/04 06:00:32;;;;;;;4.57;3.17;;;;;;;15.52;73.56;97438.81;6154952;23;20526;-72
2023/06/04 06:02:58;;;;;;;4.47;2.90;;;;;;;15.53;73.36;97438.56;6154835;23;20439;-73
2023/06/04 06:05:24;;;;;;;4.88;3.22;;;;;;;15.55;73.44;97443.63;6157743;23;20398;-73
2023/06/04 06:07:52;;;;;;;3.80;2.80;;;;;;;15.58;73.35;97451.84;6155808;23;20391;-72
2023/06/04 06:10:19;;;;;;;4.57;2.80;;;;;;;15.60;73.37;97447.03;6154775;23;20385;-73
2023/06/04 06:12:46;;;;;;;4.43;3.05;;;;;;;15.64;72.40;97449.91;6158233;23;20371;-75
2023/06/04 06:15:12;;;;;;;4.90;3.00;;;;;;;15.67;72.50;97447.50;6134889;23;20387;-75
2023/06/04 06:17:39;;;;;;;6.18;3.25;;;;;;;15.70;72.28;97438.94;6157854;23;20390;-73
2023/06/04 06:20:08;;;;;;;9.20;3.80;;;;;;;15.74;70.79;97447.16;6156234;23;20838;-73
2023/06/04 06:22:35;;;;;;;5.43;3.00;;;;;;;15.78;70.64;97450.88;6155065;23;20370;-72
2023/06/04 06:25:06;;;;;;;4.03;2.70;;;;;;;15.84;70.43;97457.75;6154827;23;20367;-72
2023/06/04 06:27:32;;;;;;;4.32;2.90;;;;;;;15.90;69.50;97455.81;6155144;23;20394;-72
2023/06/04 06:29:59;;;;;;;3.58;2.80;;;;;;;15.93;69.19;97456.06;6155896;23;20390;-73
2023/06/04 06:32:25;;;;;;;5.53;2.90;;;;;;;15.97;68.20;97458.94;6155139;23;20807;-72
2023/06/04 06:34:51;;;;;;;4.55;2.90;;;;;;;16.02;68.31;97459.66;6154366;23;20371;-72
2023/06/04 06:37:17;;;;;;;3.67;2.60;;;;;;;16.08;68.44;97455.09;6154899;23;20399;-71
2023/06/04 06:39:43;;;;;;;3.35;2.67;;;;;;;16.14;68.10;97459.28;6154367;23;20441;-72
2023/06/04 06:42:11;;;;;;;3.63;2.65;;;;;;;16.22;67.27;97462.13;6155093;23;20371;-72
2023/06/04 06:44:37;;;;;;;4.95;3.08;;;;;;;16.24;66.58;97465.28;6154834;23;20450;-73
2023/06/04 06:47:04;;;;;;;4.05;2.53;;;;;;;16.31;66.98;97462.28;6154964;23;20473;-73
2023/06/04 06:49:30;;;;;;;4.60;2.40;;;;;;;16.37;67.09;97463.81;6154861;23;20390;-73
2023/06/04 06:51:56;;;;;;;3.80;2.13;;;;;;;16.45;66.92;97470.41;6154577;23;20868;-73
2023/06/04 06:54:23;;;;;;;4.43;2.80;;;;;;;16.50;66.76;97465.00;6153932;23;20788;-72
2023/06/04 06:56:50;;;;;;;3.80;2.45;;;;;;;16.52;66.45;97468.97;6153829;23;20375;-72
2023/06/04 06:59:17;;;;;;;4.30;2.57;;;;;;;16.52;66.74;97468.97;6153612;23;20367;-72
2023/06/04 07:01:44;;;;;;;2.83;2.00;;;;;;;16.51;67.29;97469.25;6153627;23;20370;-72
2023/06/04 07:04:10;;;;;;;5.55;2.90;;;;;;;16.48;67.04;97465.28;6153974;23;20371;-72
2023/06/04 07:06:36;;;;;;;3.85;2.40;;;;;;;16.47;66.71;97463.69;6153636;23;20743;-72
2023/06/04 07:09:05;;;;;;;9.57;2.95;;;;;;;16.45;63.02;97468.53;6153919;23;20390;-72
2023/06/04 07:11:31;;;;;;;3.55;2.40;;;;;;;16.51;64.11;97466.59;6153918;23;20379;-72
2023/06/04 07:13:57;;;;;;;3.90;2.58;;;;;;;16.58;64.63;97472.38;6154000;23;20677;-72
2023/06/04 07:16:25;;;;;;;5.68;2.50;;;;;;;16.62;62.03;97466.19;6153729;23;20374;-72
2023/06/04 07:18:51;;;;;;;6.18;2.50;;;;;;;16.73;61.66;97471.41;6154178;23;20367;-72
2023/06/04 07:21:19;;;;;;;5.78;2.53;;;;;;;16.79;61.03;97481.72;6154625;23;20367;-72
2023/06/04 07:23:49;;;;;;;5.53;2.58;;;;;;;16.91;61.64;97479.44;6154203;23;20446;-73
2023/06/04 07:26:16;;;;;;;4.10;2.42;;;;;;;16.98;61.67;97479.88;6154154;23;20371;-72
2023/06/04 07:28:42;;;;;;;5.88;2.63;;;;;;;17.05;61.46;97478.72;6154281;23;20387;-72
2023/06/04 07:31:08;;;;;;;4.97;2.30;;;;;;;17.08;61.69;97486.13;6154720;23;20375;-73
2023/06/04 07:33:43;;;;;;;3.67;2.30;;;;;;;17.12;61.90;97477.25;6154400;23;20383;-73
2023/06/04 07:36:09;;;;;;;4.07;2.10;;;;;;;17.16;62.90;97478.25;6154440;23;20379;-72
2023/06/04 07:38:36;;;;;;;3.83;2.08;;;;;;;17.21;62.85;97488.09;6154678;23;20406;-72
2023/06/04 07:41:02;;;;;;;3.97;2.30;;;;;;;17.22;63.22;97479.75;6154226;23;20449;-73
2023/06/04 07:43:33;;;;;;;4.03;2.28;;;;;;;17.23;63.55;97477.88;6154436;23;20367;-73
2023/06/04 07:45:59;;;;;;;4.20;2.45;;;;;;;17.25;63.67;97475.72;6153031;23;20867;-73
2023/06/04 07:48:30;;;;;;;2.50;2.05;;;;;;;17.27;63.60;97478.91;6153652;23;20371;-73
2023/06/04 07:50:58;;;;;;;3.70;2.20;;;;;;;17.28;63.64;97473.28;6154283;23;20425;-73
2023/06/04 07:53:24;;;;;;;3.08;2.20;;;;;;;17.34;63.75;97477.44;6154173;23;20371;-73
2023/06/04 07:55:51;;;;;;;3.42;1.98;;;;;;;17.48;63.69;97474.81;6154020;23;20680;-73
2023/06/04 07:58:17;;;;;;;5.55;2.35;;;;;;;17.60;60.88;97471.66;6154468;23;21088;-73
2023/06/04 08:00:43;;;;;;;4.65;2.72;;;;;;;17.72;59.82;97469.34;6154037;23;20429;-73
2023/06/04 08:03:10;;;;;;;4.13;2.33;;;;;;;17.83;60.16;97472.63;6153868;23;20696;-73
2023/06/04 08:05:36;;;;;;;3.10;2.10;;;;;;;17.95;60.49;97465.72;6153209;23;20777;-72
2023/06/04 08:08:04;;;;;;;6.43;2.15;;;;;;;18.10;60.85;97461.97;6153324;23;20371;-72
2023/06/04 08:10:31;;;;;;;3.20;2.35;;;;;;;18.24;61.28;97453.91;6153409;23;20383;-72
2023/06/04 08:12:57;;;;;;;3.67;2.38;;;;;;;18.36;60.47;97460.34;6153306;23;20784;-72
2023/06/04 08:15:23;;;;;;;2.53;1.90;;;;;;;18.50;60.43;97458.44;6153317;23;20745;-73
2023/06/04 08:17:50;;;;;;;5.30;2.20;;;;;;;18.63;60.63;97464.16;6153288;23;20438;-72
2023/06/04 08:20:16;;;;;;;3.43;2.00;;;;;;;18.76;60.44;97452.59;6153461;23;20370;-72
2023/06/04 08:22:42;;;;;;;4.15;2.50;;;;;;;18.86;60.39;97447.00;6153272;23;20375;-72
2023/06/04 08:25:10;;;;;;;6.22;2.80;;;;;;;18.92;59.81;97449.28;6153143;23;20891;-72
2023/06/04 08:27:37;;;;;;;3.70;2.45;;;;;;;19.08;59.74;97447.03;6153654;23;20379;-72
2023/06/04 08:30:04;;;;;;;3.20;2.30;;;;;;;19.20;59.27;97451.84;6153526;23;20410;-72
2023/06/04 08:32:30;;;;;;;3.92;2.22;;;;;;;19.28;59.37;97454.59;6153727;23;20378;-73
2023/06/04 08:34:56;;;;;;;3.30;2.10;;;;;;;19.41;59.47;97452.94;6152909;23;20911;-73
2023/06/04 08:37:24;;;;;;;3.80;2.30;;;;;;;19.52;58.76;97451.63;6153218;23;20371;-72
2023/06/04 08:39:50;;;;;;;4.90;2.60;;;;;;;19.61;57.85;97449.78;6153571;23;20728;-73
2023/06/04 08:42:24;;;;;;;3.47;2.43;;;;;;;19.73;57.62;97459.94;6153715;23;20374;-72
2023/06/04 08:44:54;;;;;;;5.00;2.65;;;;;;;19.79;57.26;97455.22;6153514;23;20406;-72
2023/06/04 08:47:23;;;;;;;5.10;2.72;;;;;;;19.87;56.68;97454.50;6153562;23;20375;-71
2023/06/04 08:49:52;;;;;;;4.88;2.80;;;;;;;19.97;56.01;97455.03;6154243;23;20383;-71
2023/06/04 08:52:21;;;;;;;5.72;2.42;;;;;;;20.07;56.65;97445.91;6153609;23;20379;-71
2023/06/04 08:54:51;;;;;;;3.53;2.33;;;;;;;20.18;56.25;97449.88;6150938;23;20379;-72
2023/06/04 08:57:19;;;;;;;5.55;2.70;;;;;;;20.30;55.66;97452.75;6151123;23;20432;-73
2023/06/04 08:59:47;;;;;;;3.42;2.17;;;;;;;20.41;55.71;97454.09;6151463;23;20367;-71
2023/06/04 09:02:15;;;;;;;5.55;2.60;;;;;;;20.53;55.17;97452.69;6152928;23;20367;-72
2023/06/04 09:04:42;;;;;;;3.90;2.35;;;;;;;20.60;54.84;97453.81;6152588;23;20433;-72
2023/06/04 09:07:10;;;;;;;3.33;2.50;;;;;;;20.72;55.03;97453.22;6150937;23;20850;-72
2023/06/04 09:09:39;;;;;;;7.70;3.00;;;;;;;20.79;55.38;97461.59;6152756;23;20383;-72
2023/06/04 09:12:10;;;;;;;5.43;2.78;;;;;;;20.85;54.42;97460.34;6152593;23;20386;-73
2023/06/04 09:14:38;;;;;;;7.00;2.65;;;;;;;21.00;54.73;97456.38;6152591;23;20510;-73
2023/06/04 09:17:05;;;;;;;6.40;2.67;;;;;;;21.08;54.15;97459.09;6152267;23;20375;-74
2023/06/04 09:19:33;;;;;;;3.93;2.47;;;;;;;21.14;53.89;97465.09;6152770;23;20371;-74
2023/06/04 09:22:02;;;;;;;6.93;2.65;;;;;;;21.18;53.53;97469.56;6152859;23;20371;-73
2023/06/04 09:24:39;;;;;;;5.47;2.60;;;;;;;21.31;54.15;97464.31;6152079;23;20696;-73
2023/06/04 09:27:10;;;;;;;3.78;2.30;;;;;;;21.45;54.36;97470.31;6152321;23;20526;-74
2023/06/04 09:29:38;;;;;;;6.03;2.20;;;;;;;21.51;54.03;97477.13;6152495;23;20390;-74
2023/06/04 09:32:06;;;;;;;4.13;2.50;;;;;;;21.61;53.26;97476.81;6152259;23;20374;-73
2023/06/04 09:34:32;;;;;;;6.10;2.20;;;;;;;21.67;52.58;97469.34;6148647;23;20383;-73
2023/06/04 09:36:58;;;;;;;4.35;2.45;;;;;;;21.77;52.05;97467.09;6149968;23;20454;-73
2023/06/04 09:39:25;;;;;;;7.07;2.53;;;;;;;21.73;51.35;97462.66;6148943;23;20449;-73
2023/06/04 09:41:59;;;;;;;5.07;2.42;;;;;;;21.84;51.42;97462.00;6150923;23;20377;-73
2023/06/04 09:44:25;;;;;;;3.20;2.00;;;;;;;21.94;51.62;97458.97;6151657;23;20444;-74
2023/06/04 09:46:58;;;;;;;4.60;2.20;;;;;;;22.12;52.02;97462.41;6151040;23;20367;-73
2023/06/04 09:49:25;;;;;;;4.75;2.10;;;;;;;22.26;52.28;97464.88;6152781;23;20379;-73
2023/06/04 09:51:52;;;;;;;4.27;2.33;;;;;;;22.39;52.18;97463.88;6152719;23;20371;-74
2023/06/04 09:54:18;;;;;;;4.43;2.13;;;;;;;22.47;51.52;97463.06;6152597;23;20374;-74
2023/06/04 09:56:44;;;;;;;5.33;2.40;;;;;;;22.51;49.65;97461.28;6153013;23;20405;-74
2023/06/04 09:59:12;;;;;;;5.70;2.95;;;;;;;22.43;46.32;97458.63;6152943;23;20367;-73
2023/06/04 10:01:41;;;;;;;4.23;2.20;;;;;;;22.45;47.08;97465.28;6152621;23;20428;-73
2023/06/04 10:04:11;;;;;;;6.15;2.55;;;;;;;22.50;47.76;97461.59;6152821;23;20421;-74
2023/06/04 10:06:39;;;;;;;4.57;2.60;;;;;;;22.60;46.93;97461.22;6152652;23;20740;-74
2023/06/04 10:09:09;;;;;;;4.57;2.40;;;;;;;22.61;46.99;97460.91;6152763;23;20465;-74
2023/06/04 10:11:37;;;;;;;4.47;2.50;;;;;;;22.74;48.30;97456.41;6152705;23;20363;-72
2023/06/04 10:14:08;;;;;;;3.85;2.42;;;;;;;22.85;48.16;97449.50;6152887;23;20488;-74
2023/06/04 10:16:37;;;;;;;5.05;2.53;;;;;;;22.99;47.65;97447.34;6152403;23;20375;-74
2023/06/04 10:19:06;;;;;;;5.80;3.00;;;;;;;23.16;47.40;97466.06;6152358;23;20382;-74
2023/06/04 10:21:36;;;;;;;4.07;2.67;;;;;;;23.27;45.21;97452.16;6153080;23;20719;-74
2023/06/04 10:24:03;;;;;;;6.75;3.20;;;;;;;23.08;43.10;97447.25;6152659;23;20375;-73
2023/06/04 10:26:30;;;;;;;6.43;2.88;;;;;;;23.31;44.62;97451.16;6152791;23;20459;-74
2023/06/04 10:28:57;;;;;;;4.63;2.33;;;;;;;23.49;45.49;97441.03;6152483;23;20725;-74
2023/06/04 10:31:24;;;;;;;3.13;2.47;;;;;;;23.72;45.21;97441.44;6152462;23;20387;-74
2023/06/04 10:33:54;;;;;;;11.15;3.80;;;;;;;23.98;43.65;97441.94;6152373;23;20425;-74
2023/06/04 10:36:22;;;;;;;4.45;2.72;;;;;;;24.44;44.25;97439.91;6152274;23;20371;-74
2023/06/04 10:38:52;;;;;;;4.70;2.40;;;;;;;24.89;43.98;97432.41;6152419;23;20374;-74
2023/06/04 10:41:21;;;;;;;6.40;3.40;;;;;;;25.44;40.11;97431.66;6152446;23;20423;-74
2023/06/04 10:43:49;;;;;;;4.88;2.60;;;;;;;25.83;42.67;97437.34;6152372;23;20378;-74
2023/06/04 10:46:17;;;;;;;4.63;2.67;;;;;;;26.21;41.93;97437.53;6152181;23;20371;-74
2023/06/04 10:48:50;;;;;;;5.85;2.95;;;;;;;26.50;41.76;97439.00;6152342;23;20371;-74
2023/06/04 10:51:29;;;;;;;4.53;3.07;;;;;;;26.61;41.40;97439.25;6152390;23;20459;-74
2023/06/04 10:53:57;;;;;;;4.63;2.70;;;;;;;26.52;40.13;97444.09;6152413;23;20402;-74
2023/06/04 10:56:27;;;;;;;5.07;2.73;;;;;;;26.23;37.89;97439.91;6152182;23;20367;-74
2023/06/04 10:58:53;;;;;;;4.40;2.53;;;;;;;25.92;38.69;97435.28;6154193;23;20375;-74
2023/06/04 11:01:24;;;;;;;6.17;2.60;;;;;;;25.79;40.31;97436.47;6154304;23;20372;-73
2023/06/04 11:03:51;;;;;;;5.47;2.92;;;;;;;25.76;40.46;97429.03;6154324;23;20458;-74
2023/06/04 11:06:17;;;;;;;3.67;2.53;;;;;;;25.73;39.97;97433.22;6153773;23;20450;-73
2023/06/04 11:08:44;;;;;;;3.72;2.40;;;;;;;25.73;39.94;97438.66;6154109;23;20386;-73
2023/06/04 11:11:15;;;;;;;5.70;2.97;;;;;;;25.57;38.96;97431.59;6154056;23;20425;-73
2023/06/04 11:13:42;;;;;;;5.50;2.65;;;;;;;25.26;38.93;97430.38;6153871;23;20374;-73
2023/06/04 11:16:16;;;;;;;4.97;2.92;;;;;;;24.99;39.58;97423.84;6153458;23;20487;-73
2023/06/04 11:18:42;;;;;;;3.63;2.42;;;;;;;25.03;41.12;97429.38;6153838;23;20386;-73
2023/06/04 11:21:08;;;;;;;3.00;2.17;;;;;;;25.21;40.92;97429.84;6153892;23;20367;-73
2023/06/04 11:23:35;;;;;;;5.47;2.75;;;;;;;25.43;36.58;97432.78;6153888;23;20374;-73
2023/06/04 11:26:01;;;;;;;6.68;2.47;;;;;;;25.37;38.82;97426.06;6153672;23;20689;-73
2023/06/04 11:28:31;;;;;;;4.50;2.78;;;;;;;25.72;36.22;97428.94;6153989;23;20438;-72
2023/06/04 11:30:58;;;;;;;5.87;2.63;;;;;;;25.76;36.08;97424.41;6154216;23;20368;-73
2023/06/04 11:33:24;;;;;;;5.30;2.60;;;;;;;25.90;37.32;97423.97;6153750;23;20677;-74